Time;durP1;ratioP1;P1;durP2;ratioP2;P2;SDS_P1;SDS_P2;PMS_P1;PMS_P2;Temp;Humidity;BMP_temperature;BMP_pressure;BME280_temperature;BME280_humidity;BME280_pressure;Samples;Min_cycle;Max_cycle;Signal;HPM_P1;HPM_P2
2021/05/07 00:01:32;;;;;;;18.27;7.93;;;;;;;16.38;63.19;99672.38;5060462;28;20041;-70
2021/05/07 00:04:01;;;;;;;14.48;7.18;;;;;;;16.38;63.24;99669.75;5059979;28;20052;-70
2021/05/07 00:06:29;;;;;;;14.32;7.68;;;;;;;16.20;63.99;99661.59;5063384;28;20040;-69
2021/05/07 00:08:55;;;;;;;8.30;7.32;;;;;;;16.02;64.56;99677.06;5060109;28;20044;-69
2021/05/07 00:11:22;;;;;;;11.85;8.48;;;;;;;15.82;65.46;99675.22;5057839;28;20093;-69
2021/05/07 00:13:49;;;;;;;9.48;8.23;;;;;;;15.76;65.94;99673.94;5061124;28;20052;-69
2021/05/07 00:16:16;;;;;;;12.45;7.70;;;;;;;15.82;65.70;99662.94;5064025;28;20083;-67
2021/05/07 00:18:43;;;;;;;13.63;7.38;;;;;;;15.61;66.61;99652.34;5063588;28;20127;-67
2021/05/07 00:21:09;;;;;;;10.90;7.05;;;;;;;15.75;66.19;99651.25;5063500;28;20037;-68
2021/05/07 00:23:37;;;;;;;14.38;7.78;;;;;;;15.60;66.84;99645.38;5068159;28;20041;-68
2021/05/07 00:26:03;;;;;;;10.23;7.25;;;;;;;15.79;66.10;99646.59;5069219;28;20127;-68
2021/05/07 00:28:30;;;;;;;14.80;7.30;;;;;;;15.90;65.52;99644.75;5062507;28;20718;-70
2021/05/07 00:30:57;;;;;;;12.85;7.57;;;;;;;15.92;65.56;99639.34;5067415;28;20119;-68
2021/05/07 00:33:24;;;;;;;15.70;7.90;;;;;;;15.95;65.32;99631.22;5067069;28;20135;-70
2021/05/07 00:35:50;;;;;;;9.50;6.30;;;;;;;16.09;64.77;99616.97;5063552;28;20036;-69
2021/05/07 00:38:17;;;;;;;14.30;7.45;;;;;;;16.04;64.75;99624.41;5064817;28;20040;-68
2021/05/07 00:40:44;;;;;;;14.93;8.73;;;;;;;15.84;65.69;99618.97;5066671;28;20048;-70
2021/05/07 00:43:12;;;;;;;10.13;6.93;;;;;;;15.95;64.97;99611.03;5065828;28;20114;-70
2021/05/07 00:45:38;;;;;;;17.58;7.57;;;;;;;15.80;65.73;99607.03;5070652;28;20101;-70
2021/05/07 00:48:17;;;;;;;13.07;7.72;;;;;;;16.03;64.84;99607.75;5061094;28;20411;-69
2021/05/07 00:50:46;;;;;;;9.65;6.85;;;;;;;15.97;64.95;99595.97;5046668;28;20300;-69
2021/05/07 00:53:16;;;;;;;9.32;7.05;;;;;;;16.03;64.44;99584.09;5048221;28;20051;-69
2021/05/07 00:55:44;;;;;;;10.98;7.32;;;;;;;15.87;65.01;99581.94;5069122;28;21250;-70
2021/05/07 00:58:14;;;;;;;13.82;7.25;;;;;;;15.85;64.86;99581.22;5064206;28;20052;-68
2021/05/07 01:00:41;;;;;;;10.70;6.97;;;;;;;16.03;63.99;99576.22;5046148;28;20044;-68
2021/05/07 01:03:09;;;;;;;11.45;7.70;;;;;;;15.91;64.30;99577.25;5047722;28;20513;-70
2021/05/07 01:05:35;;;;;;;11.85;8.52;;;;;;;16.01;63.89;99572.06;5066858;28;20106;-70
2021/05/07 01:08:05;;;;;;;21.05;8.55;;;;;;;15.97;64.15;99571.47;5066240;28;20050;-71
2021/05/07 01:10:35;;;;;;;10.90;6.85;;;;;;;15.97;63.84;99580.19;5045793;28;20036;-71
2021/05/07 01:13:03;;;;;;;8.45;6.68;;;;;;;16.08;63.33;99578.47;5064558;28;20081;-70
2021/05/07 01:15:44;;;;;;;10.40;5.03;;;;;;;16.10;62.03;99574.75;5055043;28;20059;-71
2021/05/07 01:18:11;;;;;;;5.82;2.67;;;;;;;16.20;61.53;99573.03;5051752;28;20124;-70
2021/05/07 01:20:39;;;;;;;3.53;2.03;;;;;;;16.29;60.38;99570.56;5052164;28;20033;-71
2021/05/07 01:23:08;;;;;;;5.30;2.50;;;;;;;16.41;59.57;99564.28;5062296;28;20044;-71
2021/05/07 01:25:38;;;;;;;3.55;2.08;;;;;;;16.44;59.65;99562.22;5062274;28;20155;-70
2021/05/07 01:28:07;;;;;;;5.13;2.30;;;;;;;16.47;59.55;99556.72;5064772;28;20463;-70
2021/05/07 01:30:42;;;;;;;11.30;2.83;;;;;;;16.49;59.05;99559.19;5060196;28;20049;-70
2021/05/07 01:33:13;;;;;;;8.13;3.17;;;;;;;16.55;59.05;99550.78;5060590;28;20071;-68
2021/05/07 01:35:44;;;;;;;5.65;2.35;;;;;;;16.61;58.55;99544.16;5055756;28;20040;-68
2021/05/07 01:38:13;;;;;;;8.85;2.15;;;;;;;16.65;57.60;99541.13;5065275;28;20437;-70
2021/05/07 01:40:42;;;;;;;5.28;1.80;;;;;;;16.71;57.50;99535.38;5056035;28;20036;-70
2021/05/07 01:43:09;;;;;;;4.20;2.20;;;;;;;16.72;57.48;99530.94;5069479;28;20043;-69
2021/05/07 01:45:39;;;;;;;7.72;2.05;;;;;;;16.76;57.25;99527.06;5074505;28;20058;-68
2021/05/07 01:48:07;;;;;;;5.72;1.48;;;;;;;16.82;57.02;99530.97;5057189;28;20048;-68
2021/05/07 01:50:37;;;;;;;4.78;2.35;;;;;;;16.86;56.72;99553.44;5075048;28;20049;-68
2021/05/07 01:53:05;;;;;;;4.68;1.95;;;;;;;16.87;56.78;99549.81;5075190;28;20470;-68
2021/05/07 01:55:36;;;;;;;4.82;2.08;;;;;;;16.89;56.75;99556.63;5073691;28;20060;-69
2021/05/07 01:58:05;;;;;;;5.10;2.15;;;;;;;16.93;56.67;99555.38;5070897;28;20040;-68
2021/05/07 02:00:35;;;;;;;4.93;2.58;;;;;;;16.95;56.73;99545.56;5053077;28;20076;-67
2021/05/07 02:03:04;;;;;;;3.10;1.40;;;;;;;16.96;56.70;99554.28;5055697;28;20043;-68
2021/05/07 02:05:37;;;;;;;4.75;1.73;;;;;;;16.97;56.67;99550.69;5056217;28;20045;-67
2021/05/07 02:08:05;;;;;;;4.70;2.75;;;;;;;16.99;56.42;99535.56;5074941;28;20619;-68
2021/05/07 02:10:33;;;;;;;4.10;1.95;;;;;;;16.99;56.29;99535.56;5056355;28;20059;-67
2021/05/07 02:13:05;;;;;;;2.22;1.30;;;;;;;17.00;56.17;99548.63;5070902;28;20040;-67
2021/05/07 02:15:33;;;;;;;4.47;2.05;;;;;;;17.05;56.02;99552.66;5054212;28;20036;-69
2021/05/07 02:18:02;;;;;;;4.88;1.77;;;;;;;17.07;55.93;99550.72;5049183;28;20542;-68
2021/05/07 02:20:30;;;;;;;2.92;1.88;;;;;;;17.07;56.16;99546.28;5072980;28;20047;-68
2021/05/07 02:22:57;;;;;;;4.47;1.67;;;;;;;17.10;55.74;99553.06;5073140;28;20033;-68
2021/05/07 02:25:25;;;;;;;4.95;2.35;;;;;;;17.11;55.80;99558.22;5069452;28;20044;-69
2021/05/07 02:27:53;;;;;;;2.70;1.52;;;;;;;17.10;55.82;99556.56;5071124;28;20047;-70
2021/05/07 02:30:26;;;;;;;3.40;1.35;;;;;;;17.13;55.76;99545.75;5069683;28;20395;-70
2021/05/07 02:32:54;;;;;;;3.35;1.30;;;;;;;17.15;55.53;99543.81;5069914;28;20082;-71
2021/05/07 02:35:22;;;;;;;4.25;1.50;;;;;;;17.14;55.18;99542.13;5055452;28;20041;-71
2021/05/07 02:37:51;;;;;;;2.17;1.42;;;;;;;17.17;55.25;99546.31;5057240;28;20055;-70
2021/05/07 02:40:18;;;;;;;3.10;1.38;;;;;;;17.17;55.27;99549.78;5052479;28;20043;-71
2021/05/07 02:42:45;;;;;;;2.70;1.35;;;;;;;17.19;55.07;99550.47;5070831;28;20080;-71
2021/05/07 02:45:14;;;;;;;2.35;1.42;;;;;;;17.22;55.19;99544.09;5051761;28;20048;-71
2021/05/07 02:47:41;;;;;;;5.78;1.92;;;;;;;17.22;55.25;99538.84;5053939;28;20076;-72
2021/05/07 02:50:11;;;;;;;3.97;1.70;;;;;;;17.24;54.78;99553.53;5073292;28;20052;-71
2021/05/07 02:52:40;;;;;;;2.00;1.60;;;;;;;17.25;55.03;99549.91;5058305;28;20052;-71
2021/05/07 02:55:09;;;;;;;2.10;1.40;;;;;;;17.27;54.74;99541.91;5070925;28;20041;-71
2021/05/07 02:57:36;;;;;;;5.80;1.27;;;;;;;17.28;54.78;99544.38;5074363;28;20106;-70
2021/05/07 03:00:05;;;;;;;5.07;1.35;;;;;;;17.28;55.08;99546.19;5078435;28;20071;-71
2021/05/07 03:02:32;;;;;;;3.03;1.40;;;;;;;17.27;55.08;99547.16;5080105;28;20098;-71
2021/05/07 03:04:59;;;;;;;3.45;1.65;;;;;;;17.31;54.58;99550.34;5081768;28;20079;-71
2021/05/07 03:07:25;;;;;;;2.25;1.40;;;;;;;17.31;54.75;99555.59;5078941;28;20395;-71
2021/05/07 03:09:52;;;;;;;2.80;1.30;;;;;;;17.31;54.56;99553.84;5076771;28;20070;-71
2021/05/07 03:12:18;;;;;;;3.28;1.85;;;;;;;17.33;54.38;99556.31;5073219;28;20044;-71
2021/05/07 03:14:46;;;;;;;2.63;1.35;;;;;;;17.34;54.32;99552.72;5074899;28;20128;-70
2021/05/07 03:17:12;;;;;;;6.88;2.85;;;;;;;17.36;54.23;99556.88;5072974;28;20048;-69
2021/05/07 03:19:39;;;;;;;4.00;1.48;;;;;;;17.36;54.13;99567.41;5074022;28;20102;-70
2021/05/07 03:22:06;;;;;;;3.67;1.75;;;;;;;17.37;54.46;99558.56;5077350;28;20071;-68
2021/05/07 03:24:32;;;;;;;2.95;1.63;;;;;;;17.39;54.57;99561.88;5079373;28;20078;-68
2021/05/07 03:26:58;;;;;;;6.82;2.60;;;;;;;17.38;54.43;99549.69;5080028;28;20090;-68
2021/05/07 03:29:25;;;;;;;5.57;1.52;;;;;;;17.37;54.42;99541.91;5078047;28;20527;-69
2021/05/07 03:31:51;;;;;;;3.83;1.63;;;;;;;17.37;54.60;99552.47;5067195;28;20040;-68
2021/05/07 03:34:18;;;;;;;5.05;1.52;;;;;;;17.37;54.62;99557.72;5064356;28;20528;-68
2021/05/07 03:36:45;;;;;;;5.65;1.58;;;;;;;17.31;55.32;99553.84;5066168;28;20428;-68
2021/05/07 03:39:11;;;;;;;5.32;1.88;;;;;;;17.26;55.34;99559.50;5061717;28;20041;-68
2021/05/07 03:41:38;;;;;;;2.53;1.38;;;;;;;17.19;56.16;99560.16;5066901;28;20032;-68
2021/05/07 03:44:05;;;;;;;3.40;1.42;;;;;;;17.24;55.81;99547.44;5064986;28;20158;-68
2021/05/07 03:46:31;;;;;;;2.03;1.70;;;;;;;17.24;55.21;99540.34;5067019;28;20126;-68
2021/05/07 03:48:57;;;;;;;5.30;1.75;;;;;;;17.27;55.15;99550.63;5068147;28;20048;-68
2021/05/07 03:51:24;;;;;;;1.80;1.42;;;;;;;17.28;54.59;99554.91;5063077;28;20051;-68
2021/05/07 03:53:50;;;;;;;2.30;1.70;;;;;;;17.27;54.51;99553.25;5067774;28;20052;-68
2021/05/07 03:56:17;;;;;;;2.58;1.52;;;;;;;17.29;54.35;99556.59;5069513;28;20056;-68
2021/05/07 03:58:43;;;;;;;2.45;1.63;;;;;;;17.27;54.45;99553.25;5064477;28;20051;-68
2021/05/07 04:01:09;;;;;;;4.93;2.17;;;;;;;17.32;54.37;99558.13;5065827;28;20110;-69
2021/05/07 04:03:37;;;;;;;4.35;1.75;;;;;;;17.30;54.17;99552.16;5061505;28;20048;-68
2021/05/07 04:06:06;;;;;;;2.05;1.58;;;;;;;17.31;54.04;99550.34;5063782;28;20074;-68
2021/05/07 04:08:37;;;;;;;6.10;1.88;;;;;;;17.36;54.05;99541.06;5062262;28;20064;-68
2021/05/07 04:11:30;;;;;;;5.38;1.70;;;;;;;17.36;54.19;99550.75;5058220;28;20049;-70
2021/05/07 04:13:52;;;;;;;2.88;1.42;;;;;;;17.39;54.00;99556.59;5064800;28;20037;-70
2021/05/07 04:16:19;;;;;;;3.03;1.70;;;;;;;17.41;53.98;99559.09;5063807;28;20453;-69
2021/05/07 04:18:45;;;;;;;4.88;2.15;;;;;;;17.44;54.00;99558.81;5059838;28;20037;-69
2021/05/07 04:21:11;;;;;;;2.20;1.30;;;;;;;17.45;54.02;99547.31;5064104;28;20048;-70
2021/05/07 04:23:42;;;;;;;5.53;1.80;;;;;;;17.49;54.03;99551.34;5058304;28;20041;-69
2021/05/07 04:26:08;;;;;;;3.42;1.27;;;;;;;17.46;54.34;99546.34;5062407;28;20384;-70
2021/05/07 04:28:35;;;;;;;7.28;1.95;;;;;;;17.48;54.13;99571.59;5058900;28;20051;-70
2021/05/07 04:31:06;;;;;;;4.00;1.92;;;;;;;17.52;54.50;99580.03;5063263;28;20044;-71
2021/05/07 04:33:33;;;;;;;5.57;2.20;;;;;;;17.44;55.30;99582.53;5062496;28;20714;-70
2021/05/07 04:35:59;;;;;;;5.95;1.90;;;;;;;17.43;55.53;99592.25;5060027;28;20044;-70
2021/05/07 04:38:25;;;;;;;7.32;2.70;;;;;;;17.38;55.80;99585.72;5060451;28;20501;-70
2021/05/07 04:40:52;;;;;;;1.70;1.60;;;;;;;17.48;55.38;99591.84;5064072;28;20036;-70
2021/05/07 04:43:18;;;;;;;2.28;1.40;;;;;;;17.45;55.24;99594.75;5068603;28;20044;-69
2021/05/07 04:45:45;;;;;;;3.97;1.55;;;;;;;17.56;54.74;99594.63;5067843;28;20126;-70
2021/05/07 04:48:14;;;;;;;2.22;1.63;;;;;;;17.62;54.54;99596.69;5076005;28;20091;-70
2021/05/07 04:50:41;;;;;;;5.35;1.67;;;;;;;17.59;55.05;99589.09;5075981;28;20036;-69
2021/05/07 04:53:07;;;;;;;17.90;10.10;;;;;;;17.31;57.27;99600.38;5072022;28;20076;-69
2021/05/07 04:55:34;;;;;;;14.98;5.75;;;;;;;17.43;56.17;99592.25;5071829;28;20139;-69
2021/05/07 04:58:01;;;;;;;13.75;8.27;;;;;;;17.53;56.47;99606.28;5071152;28;20553;-70
2021/05/07 05:00:28;;;;;;;24.77;8.32;;;;;;;17.49;56.91;99606.69;5055104;28;20036;-70
2021/05/07 05:02:54;;;;;;;18.45;12.63;;;;;;;17.50;57.26;99597.81;5071554;28;20041;-69
2021/05/07 05:05:21;;;;;;;20.73;12.63;;;;;;;17.41;58.02;99598.59;5071061;28;20044;-70
2021/05/07 05:07:50;;;;;;;18.20;12.73;;;;;;;17.54;58.08;99599.19;5075715;28;20556;-72
2021/05/07 05:10:18;;;;;;;18.52;12.80;;;;;;;17.63;56.95;99603.66;5076465;28;20028;-70
2021/05/07 05:12:44;;;;;;;18.23;12.05;;;;;;;17.55;57.26;99617.50;5075036;28;20126;-70
2021/05/07 05:15:11;;;;;;;24.35;12.10;;;;;;;17.75;56.63;99607.03;5064637;28;20060;-70
2021/05/07 05:17:37;;;;;;;16.92;14.02;;;;;;;17.98;56.30;99616.31;5059291;28;20132;-71
2021/05/07 05:20:06;;;;;;;14.15;11.85;;;;;;;17.97;55.89;99627.84;5057703;28;20037;-70
2021/05/07 05:22:33;;;;;;;17.17;11.00;;;;;;;18.22;55.79;99621.16;5069448;28;20032;-68
2021/05/07 05:25:04;;;;;;;17.08;10.93;;;;;;;18.68;54.02;99618.72;5071807;28;20140;-67
2021/05/07 05:27:32;;;;;;;22.33;12.80;;;;;;;18.95;53.49;99612.66;5072764;28;20040;-71
2021/05/07 05:29:59;;;;;;;27.52;11.35;;;;;;;19.11;53.68;99618.13;5072835;28;20103;-68
2021/05/07 05:32:26;;;;;;;23.25;11.77;;;;;;;19.21;52.83;99613.63;5067613;28;20033;-67
2021/05/07 05:34:54;;;;;;;17.73;10.95;;;;;;;19.21;53.11;99633.94;5060145;28;20243;-69
2021/05/07 05:37:21;;;;;;;15.00;10.27;;;;;;;19.45;52.87;99628.13;5057107;28;20037;-67
2021/05/07 05:39:47;;;;;;;14.43;10.10;;;;;;;19.49;52.42;99624.19;5057080;28;20067;-67
2021/05/07 05:42:32;;;;;;;19.70;13.18;;;;;;;19.41;53.71;99613.53;5057722;28;20123;-67
2021/05/07 05:44:59;;;;;;;23.58;12.65;;;;;;;19.71;52.27;99621.16;5060750;28;20058;-69
2021/05/07 05:47:25;;;;;;;22.95;11.77;;;;;;;19.62;53.04;99624.69;5074839;28;20118;-71
2021/05/07 05:49:56;;;;;;;19.20;10.18;;;;;;;20.09;51.33;99613.91;5070357;28;20041;-67
2021/05/07 05:52:23;;;;;;;14.98;8.90;;;;;;;20.51;50.70;99624.66;5074992;28;20044;-67
2021/05/07 05:54:50;;;;;;;13.90;8.57;;;;;;;21.19;48.89;99631.78;5073817;28;20048;-69
2021/05/07 05:57:19;;;;;;;18.75;10.32;;;;;;;21.87;46.71;99623.72;5056755;28;20056;-77
2021/05/07 05:59:45;;;;;;;30.23;10.45;;;;;;;21.92;46.50;99621.41;5066607;28;20064;-75
2021/05/07 06:02:12;;;;;;;23.10;8.60;;;;;;;22.73;44.66;99630.31;5064412;28;20074;-75
2021/05/07 06:04:38;;;;;;;22.35;7.93;;;;;;;22.65;44.84;99641.81;5073271;28;20051;-73
2021/05/07 06:07:05;;;;;;;7.03;3.97;;;;;;;22.64;44.14;99624.22;5071815;28;20487;-78
2021/05/07 06:09:32;;;;;;;3.38;1.48;;;;;;;23.35;41.28;99627.81;5073501;28;20507;-78
2021/05/07 06:11:58;;;;;;;2.72;1.17;;;;;;;23.50;41.13;99642.03;5070751;28;20044;-77
2021/05/07 06:14:24;;;;;;;3.20;1.75;;;;;;;23.79;39.32;99633.38;5071403;28;20075;-74
2021/05/07 06:17:05;;;;;;;8.70;2.17;;;;;;;24.13;38.58;99624.19;5071557;28;20041;-74
2021/05/07 06:19:32;;;;;;;1.83;0.98;;;;;;;23.77;38.87;99635.41;5073809;28;20040;-76
2021/05/07 06:21:58;;;;;;;3.67;1.42;;;;;;;24.28;38.60;99626.84;5058152;28;20033;-77
2021/05/07 06:24:25;;;;;;;3.75;1.42;;;;;;;24.45;38.74;99616.91;5057083;28;20041;-73
2021/05/07 06:26:51;;;;;;;3.38;1.67;;;;;;;23.97;38.68;99619.81;5053956;28;20064;-75
2021/05/07 06:29:17;;;;;;;3.95;1.92;;;;;;;24.24;38.68;99617.59;5073364;28;20132;-75
2021/05/07 06:31:44;;;;;;;4.13;2.13;;;;;;;23.99;39.74;99620.44;5070467;28;20078;-72
2021/05/07 06:34:10;;;;;;;5.43;3.45;;;;;;;24.50;40.57;99623.38;5070891;28;20051;-73
2021/05/07 06:36:37;;;;;;;7.40;3.60;;;;;;;24.56;40.19;99616.50;5072818;28;20052;-74
2021/05/07 06:39:04;;;;;;;6.28;3.08;;;;;;;24.71;40.49;99606.63;5073210;28;20041;-76
2021/05/07 06:41:30;;;;;;;5.43;3.25;;;;;;;25.08;38.38;99624.41;5077593;28;20068;-74
2021/05/07 06:43:57;;;;;;;11.63;1.88;;;;;;;25.45;37.22;99611.91;5072400;28;20040;-77
2021/05/07 06:46:23;;;;;;;5.20;2.13;;;;;;;25.89;35.86;99616.34;5054888;28;20045;-77
2021/05/07 06:48:50;;;;;;;4.93;1.40;;;;;;;25.53;35.97;99611.00;5073707;28;20583;-78
2021/05/07 06:51:17;;;;;;;4.05;1.10;;;;;;;25.52;35.52;99617.34;5074181;28;20102;-77
2021/05/07 06:53:43;;;;;;;4.80;1.27;;;;;;;25.47;36.28;99617.91;5065901;28;20094;-77
2021/05/07 06:56:10;;;;;;;7.95;2.13;;;;;;;26.05;35.29;99602.72;5058991;28;20514;-78
2021/05/07 06:58:42;;;;;;;13.98;1.13;;;;;;;26.35;32.95;99591.84;5067953;28;20033;-78
2021/05/07 07:01:09;;;;;;;3.80;0.98;;;;;;;26.67;32.69;99617.16;5064901;28;20114;-78
2021/05/07 07:03:35;;;;;;;6.07;1.13;;;;;;;27.16;32.10;99605.50;5065575;28;20055;-77
2021/05/07 07:06:02;;;;;;;3.38;1.02;;;;;;;27.24;32.25;99605.34;5060109;28;20044;-77
2021/05/07 07:08:28;;;;;;;4.97;0.88;;;;;;;27.21;31.48;99605.75;5059237;28;20040;-78
2021/05/07 07:10:58;;;;;;;7.63;1.25;;;;;;;27.59;31.39;99611.44;5070509;28;20130;-77
2021/05/07 07:13:25;;;;;;;6.55;1.23;;;;;;;28.27;31.00;99626.56;5064061;28;20041;-76
2021/05/07 07:15:51;;;;;;;3.33;1.58;;;;;;;28.56;31.05;99607.41;5059762;28;20080;-77
2021/05/07 07:18:19;;;;;;;4.82;1.05;;;;;;;28.59;30.53;99601.63;5064414;28;20086;-81
2021/05/07 07:20:46;;;;;;;4.30;0.82;;;;;;;28.79;29.35;99595.41;5073799;28;20033;-80
2021/05/07 07:23:14;;;;;;;3.15;1.05;;;;;;;29.12;28.56;99604.19;5067444;28;20119;-79
2021/05/07 07:25:41;;;;;;;5.78;0.88;;;;;;;29.52;28.64;99601.31;5064319;28;20115;-81
2021/05/07 07:28:07;;;;;;;5.68;1.00;;;;;;;29.70;27.87;99614.03;5063716;28;20801;-77
2021/05/07 07:30:34;;;;;;;2.45;0.80;;;;;;;29.15;27.92;99619.88;5076262;28;20052;-77
2021/05/07 07:33:01;;;;;;;1.67;0.93;;;;;;;30.01;27.67;99618.59;5045034;28;20040;-78
2021/05/07 07:35:28;;;;;;;2.58;1.48;;;;;;;29.89;27.56;99629.22;5063133;28;20449;-74
2021/05/07 07:37:55;;;;;;;16.73;1.10;;;;;;;29.86;27.29;99620.75;5063883;28;20052;-73
2021/05/07 07:40:22;;;;;;;4.72;0.90;;;;;;;30.13;27.21;99624.91;5059280;28;20036;-77
2021/05/07 07:42:48;;;;;;;3.10;1.05;;;;;;;30.03;27.16;99621.84;5066084;28;20048;-76
2021/05/07 07:45:15;;;;;;;1.85;0.55;;;;;;;29.90;27.59;99617.41;5047786;28;20040;-73
2021/05/07 07:47:41;;;;;;;4.88;1.10;;;;;;;30.09;26.76;99629.03;5066284;28;20230;-75
2021/05/07 07:50:09;;;;;;;3.80;0.93;;;;;;;30.34;26.51;99626.41;5057096;28;20516;-67
2021/05/07 07:52:37;;;;;;;2.35;0.90;;;;;;;30.61;26.30;99636.91;5067990;28;20114;-66
2021/05/07 07:55:06;;;;;;;3.42;0.70;;;;;;;30.76;26.30;99640.94;5073514;28;20249;-65
2021/05/07 07:57:32;;;;;;;0.82;0.60;;;;;;;30.93;26.12;99638.47;5066021;28;20037;-65
2021/05/07 07:59:59;;;;;;;4.68;0.85;;;;;;;30.79;25.91;99636.97;5065999;28;20063;-65
2021/05/07 08:02:26;;;;;;;5.28;1.20;;;;;;;30.61;26.27;99642.28;5072346;28;20495;-68
2021/05/07 08:04:53;;;;;;;1.63;0.70;;;;;;;31.10;25.43;99625.22;5063055;28;20517;-66
2021/05/07 08:07:22;;;;;;;5.22;0.43;;;;;;;31.10;25.49;99635.97;5062011;28;20051;-67
2021/05/07 08:09:49;;;;;;;8.75;1.55;;;;;;;30.93;25.33;99626.88;5064957;28;20076;-66
2021/05/07 08:12:16;;;;;;;4.10;0.90;;;;;;;31.03;25.36;99619.94;5065325;28;20033;-69
2021/05/07 08:14:42;;;;;;;2.97;0.80;;;;;;;31.47;25.15;99639.50;5069392;28;20044;-68
2021/05/07 08:17:09;;;;;;;3.85;1.27;;;;;;;31.82;24.78;99628.06;5067777;28;20041;-67
2021/05/07 08:19:42;;;;;;;4.00;1.23;;;;;;;31.84;25.10;99638.59;5061048;28;20048;-68
2021/05/07 08:22:08;;;;;;;5.20;0.60;;;;;;;31.78;24.93;99643.81;5060352;28;20600;-68
2021/05/07 08:24:34;;;;;;;4.25;0.88;;;;;;;31.96;24.30;99653.78;5060631;28;20130;-67
2021/05/07 08:27:01;;;;;;;6.18;0.85;;;;;;;32.04;24.02;99647.22;5059128;28;20036;-68
2021/05/07 08:29:27;;;;;;;6.82;1.38;;;;;;;31.94;24.06;99647.78;5013301;28;20100;-68
2021/05/07 08:31:54;;;;;;;1.55;0.70;;;;;;;31.58;24.52;99650.53;5009478;28;20565;-67
2021/05/07 08:34:21;;;;;;;4.43;2.03;;;;;;;31.88;24.38;99653.25;4994531;28;20053;-68
2021/05/07 08:36:50;;;;;;;6.55;1.10;;;;;;;32.02;23.80;99646.63;5009365;28;20050;-69
2021/05/07 08:39:19;;;;;;;4.40;1.00;;;;;;;31.95;24.28;99648.59;4997465;28;20047;-69
2021/05/07 08:41:48;;;;;;;3.15;0.70;;;;;;;31.58;24.43;99653.25;5007081;28;20512;-70
2021/05/07 08:44:16;;;;;;;1.98;0.63;;;;;;;31.55;24.78;99670.69;5005723;28;20560;-70
2021/05/07 08:46:43;;;;;;;10.85;2.00;;;;;;;31.48;24.26;99648.38;5010076;28;20049;-68
2021/05/07 08:49:13;;;;;;;6.80;1.58;;;;;;;31.23;25.09;99668.16;5007567;28;20100;-68
2021/05/07 08:51:39;;;;;;;2.67;1.02;;;;;;;31.47;24.61;99658.34;5007747;28;20152;-68
2021/05/07 08:54:09;;;;;;;2.88;1.35;;;;;;;31.50;24.55;99651.69;5005431;28;20066;-69
2021/05/07 08:56:36;;;;;;;1.40;0.73;;;;;;;31.26;24.83;99673.09;5007770;28;20046;-69
2021/05/07 08:59:04;;;;;;;6.38;1.20;;;;;;;30.91;25.23;99680.13;5008956;28;20046;-69
2021/05/07 09:01:43;;;;;;;2.83;0.70;;;;;;;30.79;25.40;99682.72;5012803;28;20121;-67
2021/05/07 09:04:14;;;;;;;1.75;0.77;;;;;;;30.07;26.33;99689.44;5015238;28;20209;-67
2021/05/07 09:06:49;;;;;;;2.97;1.90;;;;;;;30.16;26.46;99680.94;5009573;28;20072;-68
2021/05/07 09:09:35;;;;;;;5.00;1.55;;;;;;;29.89;26.36;99672.19;5014647;28;20041;-67
2021/05/07 09:12:04;;;;;;;2.30;0.73;;;;;;;29.84;26.75;99679.25;5007805;28;20072;-67
2021/05/07 09:14:30;;;;;;;3.47;1.10;;;;;;;29.48;27.05;99691.38;5009395;28;20528;-68
2021/05/07 09:17:22;;;;;;;13.70;1.55;;;;;;;28.95;27.83;99659.34;5007863;28;20033;-67
2021/05/07 09:20:01;;;;;;;5.28;1.02;;;;;;;28.62;28.18;99684.34;5001237;28;20050;-69
2021/05/07 09:22:27;;;;;;;3.38;1.23;;;;;;;28.40;28.61;99683.72;5003463;28;20096;-67
2021/05/07 09:25:18;;;;;;;3.28;0.73;;;;;;;28.20;29.03;99689.03;5008118;28;20125;-68
2021/05/07 09:27:45;;;;;;;2.80;1.15;;;;;;;28.09;29.53;99692.31;4998949;28;20103;-67
2021/05/07 09:30:20;;;;;;;2.72;1.38;;;;;;;28.06;29.42;99687.38;5009427;28;20432;-67
2021/05/07 09:32:54;;;;;;;5.93;1.85;;;;;;;27.73;30.06;99689.97;5010236;28;20046;-67
2021/05/07 09:35:26;;;;;;;3.70;1.05;;;;;;;27.65;30.01;99693.63;5011973;28;20042;-68
2021/05/07 09:38:00;;;;;;;2.42;1.20;;;;;;;27.50;30.08;99692.97;4985916;28;20042;-67
2021/05/07 09:40:27;;;;;;;2.40;1.45;;;;;;;27.42;30.14;99690.44;5008181;28;20046;-68
2021/05/07 09:43:10;;;;;;;4.25;0.88;;;;;;;27.30;30.61;99681.34;5007282;28;20050;-66
2021/05/07 09:45:39;;;;;;;1.75;0.90;;;;;;;27.31;30.40;99699.84;5010855;28;20049;-67
2021/05/07 09:48:26;;;;;;;2.65;0.90;;;;;;;26.99;30.73;99679.91;5003502;28;20038;-68
2021/05/07 09:50:58;;;;;;;3.58;0.90;;;;;;;27.18;31.23;99696.31;5012300;28;20070;-69
2021/05/07 09:53:29;;;;;;;4.15;1.95;;;;;;;27.15;30.98;99686.81;5006464;28;20078;-68
2021/05/07 09:55:59;;;;;;;2.92;0.90;;;;;;;27.12;30.78;99676.53;5010164;28;20511;-66
2021/05/07 09:58:27;;;;;;;5.35;0.90;;;;;;;27.11;31.45;99691.75;5013118;28;20041;-67
2021/05/07 10:00:56;;;;;;;3.15;1.05;;;;;;;27.04;30.54;99688.16;5015218;28;20073;-67
2021/05/07 10:03:23;;;;;;;3.47;0.93;;;;;;;27.06;31.10;99691.47;5007578;28;20089;-69
2021/05/07 10:05:51;;;;;;;2.75;1.05;;;;;;;27.07;31.14;99687.81;4993705;28;20046;-67
2021/05/07 10:08:18;;;;;;;4.55;1.20;;;;;;;27.01;31.36;99687.75;5008316;28;20120;-68
2021/05/07 10:10:45;;;;;;;4.63;1.17;;;;;;;26.92;31.45;99695.09;5007499;28;20045;-69
2021/05/07 10:13:17;;;;;;;9.82;1.00;;;;;;;26.85;31.12;99695.03;5003418;28;20042;-66
2021/05/07 10:15:44;;;;;;;2.33;1.17;;;;;;;26.79;31.11;99695.84;5011638;28;20121;-69
2021/05/07 10:18:22;;;;;;;8.48;1.35;;;;;;;26.74;31.34;99706.28;5011528;28;20125;-69
2021/05/07 10:20:58;;;;;;;3.65;1.65;;;;;;;26.68;31.69;99704.34;5012351;28;20069;-68
2021/05/07 10:23:25;;;;;;;3.00;1.40;;;;;;;26.71;31.61;99692.47;5003642;28;20052;-68
2021/05/07 10:26:06;;;;;;;5.53;0.90;;;;;;;26.73;31.73;99688.56;5011538;28;20281;-69
2021/05/07 10:28:53;;;;;;;1.70;1.17;;;;;;;26.73;32.12;99690.41;5007967;28;20073;-69
2021/05/07 10:31:21;;;;;;;4.55;1.20;;;;;;;26.69;32.40;99705.22;5009293;28;20049;-69
2021/05/07 10:33:58;;;;;;;3.75;2.08;;;;;;;26.66;32.09;99717.09;5012923;28;20041;-69
2021/05/07 10:36:47;;;;;;;3.30;1.55;;;;;;;26.51;31.85;99713.69;5005240;28;20522;-69
2021/05/07 10:39:32;;;;;;;3.05;1.00;;;;;;;26.56;32.57;99705.91;5003911;28;20038;-68
2021/05/07 10:42:02;;;;;;;4.65;1.25;;;;;;;26.59;32.11;99690.34;5002664;28;20124;-65
2021/05/07 10:44:41;;;;;;;4.93;2.03;;;;;;;26.52;32.43;99689.44;5009257;28;20041;-67
2021/05/07 10:47:11;;;;;;;2.90;1.05;;;;;;;26.45;32.65;99693.09;5006970;28;20046;-68
2021/05/07 10:49:39;;;;;;;4.82;2.60;;;;;;;26.39;32.50;99694.66;5002776;28;20100;-67
2021/05/07 10:52:08;;;;;;;3.55;1.10;;;;;;;26.33;32.62;99685.56;4993118;28;20035;-70
2021/05/07 10:54:39;;;;;;;1.83;1.30;;;;;;;26.30;32.91;99685.09;4999878;28;20046;-68
2021/05/07 10:57:28;;;;;;;5.85;1.75;;;;;;;26.27;32.93;99664.13;5011946;28;20137;-67
2021/05/07 11:00:02;;;;;;;1.85;1.10;;;;;;;26.20;33.02;99680.06;5010709;28;20136;-67
2021/05/07 11:02:29;;;;;;;6.47;1.55;;;;;;;26.16;32.75;99678.84;5012163;28;20485;-68
2021/05/07 11:04:56;;;;;;;3.28;1.02;;;;;;;26.19;32.90;99677.59;5012859;28;20128;-67
2021/05/07 11:07:29;;;;;;;6.88;1.05;;;;;;;26.19;33.11;99670.41;5013602;28;20050;-67
2021/05/07 11:10:11;;;;;;;7.82;1.75;;;;;;;26.12;32.53;99666.88;5012785;28;20073;-68
2021/05/07 11:12:42;;;;;;;7.70;1.33;;;;;;;26.03;32.89;99663.50;5013271;28;20091;-67
2021/05/07 11:15:19;;;;;;;2.83;1.10;;;;;;;26.03;32.90;99657.31;5012074;28;20054;-67
2021/05/07 11:17:45;;;;;;;3.55;1.38;;;;;;;25.99;33.22;99658.72;5013257;28;20100;-69
2021/05/07 11:20:12;;;;;;;8.13;1.13;;;;;;;25.94;32.85;99661.97;5012802;28;20041;-67
2021/05/07 11:22:40;;;;;;;3.67;1.45;;;;;;;25.93;33.62;99659.47;5013062;28;20038;-65
2021/05/07 11:25:08;;;;;;;2.13;0.98;;;;;;;25.89;33.40;99651.03;5012231;28;20050;-62
2021/05/07 11:27:37;;;;;;;5.13;1.02;;;;;;;25.93;33.92;99654.97;5012762;28;20512;-64
2021/05/07 11:30:11;;;;;;;3.70;1.38;;;;;;;25.98;34.41;99652.56;5008993;28;20045;-64
2021/05/07 11:32:38;;;;;;;1.60;0.90;;;;;;;25.88;33.17;99649.38;5012384;28;20041;-64
2021/05/07 11:35:09;;;;;;;4.32;1.42;;;;;;;25.90;33.50;99647.34;5009403;28;20567;-66
2021/05/07 11:37:38;;;;;;;2.88;0.88;;;;;;;25.89;33.53;99637.69;5010653;28;20489;-70
2021/05/07 11:40:05;;;;;;;3.88;1.10;;;;;;;25.93;34.17;99641.63;5011888;28;20041;-67